Carlton, Oregon
Current Conditions -  °F | °C
As of 12:53 AM on Wednesday 26 Nov 2014 (Local Time) from KMMV Reporting Station
Overcast Overcast  
Wind Chill: 56°   Ceiling: 5000
Heat Index: 56°   Visibility: 10mi
Dew Point: 53°   Wind: 7mph
Humidity: 90%   Direction: 210°SSW
Pressure: 30.29"   Gusts: NA
Location:  45.29°N, 123.18°W
Report Text: KMMV 260853Z AUTO 21006KT 10SM OVC050 13/12 A3029 RMK AO2 SLP256 T01330117 58003
Loading
Personal Weather Stations






























Interactive Weather Map New forecast layout! Learn more

10-Day Weather Forecast

Advertisements
Track Severe Weather on mobile